Time;durP1;ratioP1;P1;durP2;ratioP2;P2;SDS_P1;SDS_P2;PMS_P1;PMS_P2;Temp;Humidity;BMP_temperature;BMP_pressure;BME280_temperature;BME280_humidity;BME280_pressure;Samples;Min_cycle;Max_cycle;Signal;HPM_P1;HPM_P2
2023/10/29 00:02:17;;;;;;;5.70;3.80;;;;;;;11.78;57.75;98394.31;10251162;28;20338;-65
2023/10/29 00:07:19;;;;;;;4.37;3.73;;;;;;;12.62;56.09;98348.72;10226363;28;20223;-65
2023/10/29 00:12:20;;;;;;;5.17;4.23;;;;;;;11.85;57.67;98364.75;10232990;28;20896;-65
2023/10/29 00:17:22;;;;;;;5.10;4.10;;;;;;;11.91;58.17;98307.53;10229539;28;20741;-65
2023/10/29 00:22:24;;;;;;;7.10;3.67;;;;;;;13.23;54.81;98283.97;10229646;28;20424;-66
2023/10/29 00:27:25;;;;;;;5.50;3.97;;;;;;;12.13;55.88;98339.97;10231370;28;20792;-65
2023/10/29 00:32:27;;;;;;;5.13;3.40;;;;;;;14.94;51.09;98256.94;10232632;28;20471;-65
2023/10/29 00:37:29;;;;;;;4.30;3.40;;;;;;;14.41;52.61;98288.78;10229954;28;20219;-66
2023/10/29 00:42:30;;;;;;;4.57;3.90;;;;;;;13.34;54.65;98365.59;10231542;28;20634;-65
2023/10/29 00:47:32;;;;;;;4.50;3.50;;;;;;;12.91;56.02;98351.53;10228851;28;21794;-66
2023/10/29 00:52:36;;;;;;;4.40;3.33;;;;;;;11.55;59.06;98347.56;10228540;28;20875;-65
2023/10/29 00:57:38;;;;;;;6.83;4.17;;;;;;;11.55;59.46;98269.06;10229056;28;20215;-66
2023/10/29 01:02:40;;;;;;;5.30;3.90;;;;;;;13.35;55.55;98230.25;10260956;28;20328;-68
2023/10/29 01:07:42;;;;;;;6.40;4.17;;;;;;;12.71;55.79;98293.63;10293220;28;20780;-66
2023/10/29 01:12:45;;;;;;;7.27;3.87;;;;;;;14.78;51.33;98254.03;10297849;28;20230;-65
2023/10/29 01:17:47;;;;;;;6.37;4.30;;;;;;;14.11;52.45;98322.19;10285584;28;20258;-66
2023/10/29 01:22:48;;;;;;;4.97;4.13;;;;;;;13.90;52.76;98353.25;10293482;28;20320;-67
2023/10/29 01:27:50;;;;;;;6.43;5.00;;;;;;;13.79;54.50;98244.72;10289419;28;20254;-67
2023/10/29 01:32:52;;;;;;;8.47;5.50;;;;;;;11.94;58.48;98240.06;10288228;28;20956;-66
2023/10/29 01:37:53;;;;;;;5.90;4.77;;;;;;;13.89;53.78;98163.41;10289264;28;20330;-67
2023/10/29 01:42:55;;;;;;;6.13;4.40;;;;;;;12.83;55.32;98277.53;10291193;28;20317;-66
2023/10/29 01:47:57;;;;;;;11.43;6.40;;;;;;;12.03;56.94;98297.66;10288256;28;20249;-67
2023/10/29 01:52:59;;;;;;;6.73;5.20;;;;;;;11.72;58.21;98216.47;10291848;28;20345;-67
2023/10/29 01:58:00;;;;;;;4.40;4.00;;;;;;;12.24;57.06;98250.69;10290728;28;20230;-67
2023/10/29 02:03:02;;;;;;;4.10;3.70;;;;;;;13.52;54.95;98107.47;10288984;28;20253;-67
2023/10/29 02:08:04;;;;;;;5.57;3.80;;;;;;;14.59;51.77;98231.97;10288901;28;20325;-66
2023/10/29 02:13:06;;;;;;;4.93;3.80;;;;;;;13.40;53.33;98322.50;10289978;28;20325;-67
2023/10/29 02:18:08;;;;;;;4.57;4.10;;;;;;;11.57;58.67;98261.59;10282540;28;20268;-66
2023/10/29 02:23:11;;;;;;;6.13;4.13;;;;;;;11.22;59.58;98224.78;10290391;28;20238;-67
2023/10/29 02:28:13;;;;;;;5.00;4.13;;;;;;;12.22;57.37;98136.69;10291427;28;20242;-68
2023/10/29 02:33:14;;;;;;;8.73;4.17;;;;;;;13.96;53.93;98094.13;10290325;28;20284;-68
2023/10/29 02:38:18;;;;;;;3.53;3.23;;;;;;;13.97;53.77;98137.97;10311142;28;20246;-67
2023/10/29 02:43:19;;;;;;;4.57;3.83;;;;;;;12.74;55.61;98214.53;10287904;28;20246;-68
2023/10/29 02:48:21;;;;;;;7.83;4.00;;;;;;;13.03;55.71;98099.13;10287203;28;20231;-68
2023/10/29 02:53:23;;;;;;;5.23;3.33;;;;;;;11.53;57.53;98277.31;10287042;28;20310;-68
2023/10/29 02:58:25;;;;;;;5.27;3.30;;;;;;;11.13;58.55;98240.34;10286617;28;20761;-68
2023/10/29 03:03:26;;;;;;;4.73;3.87;;;;;;;11.19;58.98;98136.91;10282352;28;20243;-68
2023/10/29 03:08:28;;;;;;;3.30;2.73;;;;;;;11.21;57.22;98225.84;10282490;28;20248;-68
2023/10/29 03:13:30;;;;;;;3.83;2.90;;;;;;;10.62;58.85;98222.84;10286503;28;20234;-67
2023/10/29 03:18:32;;;;;;;3.33;2.90;;;;;;;10.59;58.72;98210.72;10275397;28;21059;-68
2023/10/29 03:23:34;;;;;;;4.53;3.17;;;;;;;10.85;56.97;98291.78;10279988;28;20328;-68
2023/10/29 03:28:37;;;;;;;5.00;3.33;;;;;;;12.08;55.35;98128.03;10281405;28;20259;-67
2023/10/29 03:33:39;;;;;;;3.80;2.93;;;;;;;12.87;53.63;98176.69;10284352;28;20304;-68
2023/10/29 03:38:41;;;;;;;3.57;2.60;;;;;;;12.20;54.52;98265.63;10287878;28;20322;-68
2023/10/29 03:43:42;;;;;;;6.63;2.60;;;;;;;13.02;53.26;98176.13;10286471;28;20230;-68
2023/10/29 03:48:47;;;;;;;3.20;2.90;;;;;;;12.35;54.48;98254.41;10287318;28;20226;-68
2023/10/29 03:53:49;;;;;;;3.80;2.30;;;;;;;12.23;54.71;98198.09;10296153;28;20230;-67
2023/10/29 03:58:51;;;;;;;3.73;2.77;;;;;;;13.47;52.59;98139.63;10296017;28;20241;-67
2023/10/29 04:03:52;;;;;;;2.90;2.60;;;;;;;12.96;52.94;98203.13;10293843;28;20594;-68
2023/10/29 04:08:54;;;;;;;6.50;2.77;;;;;;;12.81;53.23;98207.16;10301730;28;20237;-68
2023/10/29 04:13:56;;;;;;;2.43;2.13;;;;;;;12.21;53.70;98263.75;10297365;28;20273;-68
2023/10/29 04:18:58;;;;;;;3.07;2.30;;;;;;;12.98;52.33;98171.50;10294220;28;20231;-68
2023/10/29 04:23:59;;;;;;;2.50;2.00;;;;;;;12.51;52.92;98266.34;10291842;28;20326;-67
2023/10/29 04:29:01;;;;;;;2.83;2.63;;;;;;;12.35;53.25;98274.03;10291273;28;20234;-67
2023/10/29 04:34:03;;;;;;;3.53;2.37;;;;;;;12.81;52.78;98198.28;10295899;28;20227;-68
2023/10/29 04:39:04;;;;;;;3.13;2.40;;;;;;;12.98;52.53;98204.53;10296348;28;20237;-68
2023/10/29 04:44:06;;;;;;;2.67;2.47;;;;;;;13.24;51.37;98275.66;10296126;28;20237;-68
2023/10/29 04:49:08;;;;;;;2.77;2.10;;;;;;;13.03;52.33;98230.69;10296914;28;20317;-68
2023/10/29 04:54:11;;;;;;;3.17;2.70;;;;;;;12.63;52.33;98291.31;10293693;28;20229;-70
2023/10/29 04:59:13;;;;;;;2.97;2.43;;;;;;;12.71;52.31;98210.44;10291171;28;21293;-68
2023/10/29 05:04:14;;;;;;;3.10;2.40;;;;;;;12.23;52.53;98334.88;10298460;28;20242;-68
2023/10/29 05:09:16;;;;;;;2.80;2.20;;;;;;;12.47;51.32;98367.97;10290359;28;20238;-68
2023/10/29 05:14:18;;;;;;;2.53;2.33;;;;;;;13.14;50.11;98264.72;10293608;28;20690;-67
2023/10/29 05:19:20;;;;;;;2.00;1.87;;;;;;;13.50;49.90;98243.94;10293418;28;20268;-68
2023/10/29 05:24:22;;;;;;;2.93;2.63;;;;;;;14.34;49.22;98256.66;10293434;28;20231;-68
2023/10/29 05:29:24;;;;;;;2.60;2.40;;;;;;;13.65;50.85;98342.88;10288638;28;20261;-68
2023/10/29 05:34:26;;;;;;;3.40;2.73;;;;;;;11.97;54.00;98392.41;10295808;28;20230;-67
2023/10/29 05:39:27;;;;;;;3.73;3.13;;;;;;;13.16;52.31;98269.84;10294105;28;20332;-68
2023/10/29 05:44:29;;;;;;;5.40;3.90;;;;;;;11.81;54.67;98388.47;10294059;28;20229;-68
2023/10/29 05:49:31;;;;;;;7.63;5.50;;;;;;;13.37;52.33;98241.56;10287787;28;20257;-68
2023/10/29 05:54:32;;;;;;;13.13;10.73;;;;;;;13.66;51.39;98243.16;10288274;28;20246;-68
2023/10/29 05:59:34;;;;;;;11.60;9.97;;;;;;;12.74;53.57;98319.22;10293793;28;20903;-68
2023/10/29 06:04:36;;;;;;;4.10;3.70;;;;;;;14.29;50.23;98242.28;10293748;28;20245;-68
2023/10/29 06:09:38;;;;;;;3.20;2.90;;;;;;;12.33;53.70;98369.19;10292429;28;20679;-68
2023/10/29 06:14:40;;;;;;;4.20;3.37;;;;;;;11.86;55.63;98351.13;10292922;28;20761;-68
2023/10/29 06:19:42;;;;;;;3.20;2.90;;;;;;;13.31;52.45;98254.06;10294130;28;20221;-68
2023/10/29 06:24:44;;;;;;;9.77;5.67;;;;;;;13.23;51.60;98356.50;10293493;28;20303;-68
2023/10/29 06:29:46;;;;;;;8.70;4.77;;;;;;;13.15;53.52;98367.59;10288654;28;20343;-68
2023/10/29 06:34:48;;;;;;;5.37;4.10;;;;;;;13.59;51.99;98358.06;10297072;28;20261;-68
2023/10/29 06:39:50;;;;;;;7.37;4.33;;;;;;;13.17;53.15;98433.44;10286579;28;20222;-67
2023/10/29 06:44:52;;;;;;;10.93;6.63;;;;;;;12.32;55.88;98456.06;10293173;28;20503;-67
2023/10/29 06:49:55;;;;;;;8.13;4.60;;;;;;;13.85;52.93;98302.91;10292526;28;20433;-68
2023/10/29 06:54:56;;;;;;;7.13;5.70;;;;;;;14.36;52.18;98340.63;10294123;28;20238;-67
2023/10/29 06:59:59;;;;;;;11.50;8.17;;;;;;;14.20;52.25;98342.25;10291861;28;20229;-67
2023/10/29 07:05:01;;;;;;;12.53;7.33;;;;;;;12.44;55.47;98518.63;10293391;28;20242;-67
2023/10/29 07:10:04;;;;;;;6.83;5.40;;;;;;;12.47;55.87;98466.38;10292926;28;20309;-67
2023/10/29 07:15:08;;;;;;;15.37;10.27;;;;;;;12.16;56.61;98513.81;10290325;28;20238;-67
2023/10/29 07:20:11;;;;;;;7.47;4.17;;;;;;;12.54;56.46;98445.66;10287610;28;20214;-67
2023/10/29 07:25:13;;;;;;;5.27;3.73;;;;;;;11.26;58.97;98510.63;10300227;28;20235;-68
2023/10/29 07:30:14;;;;;;;4.77;3.03;;;;;;;11.53;59.48;98376.44;10291953;28;20270;-67
2023/10/29 07:35:16;;;;;;;4.90;3.40;;;;;;;11.90;58.48;98376.41;10297496;28;20352;-67
2023/10/29 07:40:18;;;;;;;3.70;3.10;;;;;;;11.37;60.26;98324.31;10294144;28;20575;-67
2023/10/29 07:45:19;;;;;;;23.87;17.67;;;;;;;10.44;62.19;98453.63;10299997;28;20343;-67
2023/10/29 07:50:21;;;;;;;5.40;4.90;;;;;;;10.75;62.00;98318.19;10292703;28;20779;-67
2023/10/29 07:55:23;;;;;;;6.30;4.10;;;;;;;10.76;62.62;98274.38;10303381;28;20316;-67
2023/10/29 08:00:24;;;;;;;6.63;4.70;;;;;;;10.26;62.79;98395.50;10298907;28;20266;-67
2023/10/29 08:05:26;;;;;;;4.33;3.73;;;;;;;10.47;62.19;98338.19;10297336;28;20253;-67
2023/10/29 08:10:28;;;;;;;6.57;4.30;;;;;;;10.01;63.35;98400.84;10299616;28;20659;-67
2023/10/29 08:15:30;;;;;;;5.90;4.27;;;;;;;11.29;60.71;98308.56;10304337;28;20253;-67
2023/10/29 08:20:31;;;;;;;6.60;3.80;;;;;;;10.12;63.47;98373.41;10298950;28;20252;-67
2023/10/29 08:25:37;;;;;;;9.33;5.40;;;;;;;11.15;61.22;98229.44;10300740;28;21153;-67
2023/10/29 08:30:39;;;;;;;5.10;4.60;;;;;;;11.61;59.49;98268.16;10333476;23;20328;-44
2023/10/29 08:35:44;;;;;;;6.83;5.13;;;;;;;11.03;61.35;98297.09;10334709;28;20258;-43
2023/10/29 08:40:46;;;;;;;4.87;4.17;;;;;;;12.01;58.73;98216.63;10335314;28;20430;-44
2023/10/29 08:45:48;;;;;;;3.27;2.80;;;;;;;11.74;58.72;98313.56;10343631;28;20236;-44
2023/10/29 08:50:50;;;;;;;11.27;10.17;;;;;;;11.60;59.99;98251.25;10339741;28;20234;-43
2023/10/29 08:55:52;;;;;;;5.03;4.10;;;;;;;11.11;61.13;98279.13;10339225;28;20233;-44
2023/10/29 09:00:57;;;;;;;6.07;3.37;;;;;;;13.40;55.68;98227.66;10338772;28;20267;-43
2023/10/29 09:06:03;;;;;;;5.53;4.77;;;;;;;13.56;54.92;98344.28;10338339;28;20234;-43
2023/10/29 09:11:06;;;;;;;8.47;6.40;;;;;;;13.80;54.95;98299.28;10337342;28;20727;-43
2023/10/29 09:16:08;;;;;;;4.60;3.97;;;;;;;13.50;55.75;98332.63;10341755;28;20690;-44
2023/10/29 09:21:11;;;;;;;11.23;9.50;;;;;;;13.15;56.81;98330.00;10339189;28;20615;-43
2023/10/29 09:26:13;;;;;;;7.77;6.27;;;;;;;14.04;53.73;98349.22;10341418;28;20236;-43
2023/10/29 09:31:18;;;;;;;6.17;4.37;;;;;;;14.09;54.12;98345.84;10339371;28;20257;-43
2023/10/29 09:36:20;;;;;;;5.67;4.00;;;;;;;13.39;56.15;98350.41;10337338;28;20235;-44
2023/10/29 09:41:22;;;;;;;4.83;3.87;;;;;;;11.50;60.44;98435.00;10334721;28;20230;-43
2023/10/29 09:46:24;;;;;;;4.43;3.70;;;;;;;11.33;62.31;98336.50;10332856;28;20229;-43
2023/10/29 09:51:27;;;;;;;7.10;4.70;;;;;;;11.92;61.75;98247.53;10334502;28;20253;-43
2023/10/29 09:56:30;;;;;;;4.63;4.20;;;;;;;12.72;59.57;98260.41;10332090;28;20245;-43
2023/10/29 10:01:31;;;;;;;6.33;4.17;;;;;;;12.47;58.69;98391.25;10335101;28;20234;-44
2023/10/29 10:06:49;;;;;;;6.40;5.73;;;;;;;12.42;59.85;98313.31;10334403;28;20233;-43
2023/10/29 10:12:04;;;;;;;9.57;8.57;;;;;;;12.52;59.41;98373.44;10335087;28;20265;-43
2023/10/29 10:17:08;;;;;;;4.70;4.20;;;;;;;11.40;62.25;98373.91;10332682;28;20332;-43
2023/10/29 10:22:10;;;;;;;4.77;3.87;;;;;;;12.86;59.39;98242.16;10333158;28;20620;-44
2023/10/29 10:27:12;;;;;;;4.60;3.23;;;;;;;14.02;56.52;98238.38;10330238;28;20241;-44
2023/10/29 10:32:15;;;;;;;3.23;2.70;;;;;;;13.02;58.09;98400.88;10335362;28;20233;-44
2023/10/29 10:37:17;;;;;;;4.27;3.67;;;;;;;13.65;58.35;98297.97;10335333;28;20225;-43
2023/10/29 10:42:25;;;;;;;3.63;3.00;;;;;;;13.53;57.99;98334.84;10330960;28;20831;-43
2023/10/29 10:47:29;;;;;;;5.67;4.20;;;;;;;12.33;60.42;98394.16;10331618;28;20229;-43
2023/10/29 10:52:31;;;;;;;4.53;3.20;;;;;;;13.11;60.15;98246.41;10329901;28;20680;-44
2023/10/29 10:57:36;;;;;;;4.33;2.90;;;;;;;12.28;61.96;98259.94;10329556;28;20279;-44
2023/10/29 11:06:11;;;;;;;4.77;4.17;;;;;;;12.08;63.34;98225.41;10386259;28;20297;-67
2023/10/29 11:11:14;;;;;;;14.27;9.63;;;;;;;11.30;65.66;98234.38;10427659;28;20243;-68
2023/10/29 11:16:24;;;;;;;10.20;9.20;;;;;;;11.97;64.03;98196.72;10415881;28;20243;-68
2023/10/29 11:21:34;;;;;;;8.90;6.73;;;;;;;11.63;64.04;98261.53;10428124;28;20236;-69
2023/10/29 11:26:36;;;;;;;6.40;5.40;;;;;;;11.93;63.02;98275.94;10414218;28;20239;-66
2023/10/29 11:31:38;;;;;;;5.10;4.17;;;;;;;12.85;60.67;98245.88;10419520;28;20696;-67
2023/10/29 11:36:41;;;;;;;3.93;3.47;;;;;;;13.42;58.99;98285.44;10414114;28;20649;-67
2023/10/29 11:41:44;;;;;;;4.43;3.77;;;;;;;13.93;58.81;98222.88;10422175;28;20239;-67
2023/10/29 11:46:55;;;;;;;6.20;3.60;;;;;;;12.87;60.97;98308.22;10404395;28;20470;-69
2023/10/29 11:52:01;;;;;;;3.07;2.77;;;;;;;14.25;58.18;98217.75;10419422;28;20316;-67
2023/10/29 11:57:06;;;;;;;3.60;3.30;;;;;;;13.89;57.89;98300.53;10407348;28;20258;-68
2023/10/29 12:02:07;;;;;;;5.43;4.27;;;;;;;13.75;58.44;98326.09;10415088;28;20236;-67
2023/10/29 12:07:23;;;;;;;5.10;4.13;;;;;;;14.55;57.19;98248.88;10414919;28;20728;-67
2023/10/29 12:12:24;;;;;;;4.27;3.17;;;;;;;12.54;62.07;98363.28;10416472;28;20225;-67
2023/10/29 12:17:27;;;;;;;8.07;4.30;;;;;;;13.94;59.84;98271.06;10385790;28;20235;-67
2023/10/29 12:22:30;;;;;;;3.37;3.07;;;;;;;12.30;63.19;98356.22;10395676;28;20727;-70
2023/10/29 12:27:34;;;;;;;5.07;3.63;;;;;;;14.19;59.97;98167.66;10383478;28;20754;-69
2023/10/29 12:32:35;;;;;;;8.57;6.70;;;;;;;14.93;57.34;98212.22;10406477;28;20233;-68
2023/10/29 12:37:37;;;;;;;4.63;4.00;;;;;;;14.39;59.51;98232.50;10408695;28;20240;-66
2023/10/29 12:42:51;;;;;;;10.93;7.17;;;;;;;12.92;62.33;98328.97;10411094;28;20886;-67
2023/10/29 12:48:09;;;;;;;16.40;13.83;;;;;;;;;;10401748;28;20347;-69
2023/10/29 12:53:11;;;;;;;8.40;7.60;;;;;;;12.32;63.97;98312.03;10406932;28;20255;-67
2023/10/29 12:58:12;;;;;;;6.43;4.80;;;;;;;12.35;64.99;98222.22;10404856;28;20264;-67
2023/10/29 13:03:14;;;;;;;4.50;3.50;;;;;;;11.71;66.36;98302.44;10411287;28;20247;-68
2023/10/29 13:08:17;;;;;;;5.73;4.03;;;;;;;12.52;65.05;98192.88;10410673;28;20620;-68
2023/10/29 13:13:19;;;;;;;6.57;3.33;;;;;;;13.04;64.57;98151.75;10408689;28;20621;-68
2023/10/29 13:18:21;;;;;;;4.60;4.03;;;;;;;12.41;65.37;98185.63;10402530;28;20377;-68
2023/10/29 13:23:23;;;;;;;5.13;4.27;;;;;;;14.15;60.66;98147.69;10410219;28;20709;-66
2023/10/29 13:28:25;;;;;;;4.63;4.13;;;;;;;14.49;59.13;98151.09;10400534;28;20235;-67
2023/10/29 13:33:26;;;;;;;4.10;3.33;;;;;;;14.23;60.31;98187.59;10407853;28;20615;-66
2023/10/29 13:38:28;;;;;;;3.93;3.53;;;;;;;13.34;60.58;98317.25;10392909;28;20326;-68
2023/10/29 13:43:30;;;;;;;6.27;4.47;;;;;;;14.72;58.39;98184.22;10406064;28;20276;-69
2023/10/29 13:48:32;;;;;;;4.70;3.33;;;;;;;14.91;58.08;98184.72;10392850;28;20247;-69
2023/10/29 13:53:34;;;;;;;8.37;4.50;;;;;;;13.82;59.84;98298.00;10406284;28;20232;-65
2023/10/29 13:58:36;;;;;;;9.87;7.50;;;;;;;13.23;62.10;98274.03;10400286;28;20237;-66
2023/10/29 14:03:38;;;;;;;5.57;4.23;;;;;;;13.26;62.34;98244.03;10402744;28;20247;-68
2023/10/29 14:08:40;;;;;;;3.67;3.37;;;;;;;13.30;62.77;98198.72;10396180;28;20231;-65
2023/10/29 14:13:42;;;;;;;4.33;3.70;;;;;;;13.53;61.61;98186.22;10401361;28;20504;-66
2023/10/29 14:18:47;;;;;;;4.57;3.73;;;;;;;13.10;63.09;98185.69;10398540;28;20714;-66
2023/10/29 14:23:49;;;;;;;4.17;3.77;;;;;;;14.88;57.82;98129.50;10404632;28;20720;-69
2023/10/29 14:28:50;;;;;;;3.90;3.40;;;;;;;13.28;60.81;98233.88;10418293;22;20240;-35
2023/10/29 14:33:52;;;;;;;4.37;3.67;;;;;;;13.45;61.06;98188.25;10388042;28;20317;-36
2023/10/29 14:38:54;;;;;;;5.80;4.00;;;;;;;13.64;61.63;98129.69;10381029;28;20233;-37
2023/10/29 14:43:56;;;;;;;4.23;3.83;;;;;;;13.09;62.54;98162.56;10398790;23;20258;-34
2023/10/29 14:48:58;;;;;;;3.83;3.50;;;;;;;12.30;63.21;98273.91;10401092;28;20236;-37
2023/10/29 14:53:59;;;;;;;3.23;2.93;;;;;;;14.62;58.16;98100.63;10400261;28;20620;-36
2023/10/29 14:59:03;;;;;;;4.53;2.80;;;;;;;13.17;60.79;98218.59;10396703;28;20243;-44
2023/10/29 15:04:06;;;;;;;3.17;2.60;;;;;;;13.82;59.82;98155.53;10401163;28;20326;-41
2023/10/29 15:09:08;;;;;;;4.10;3.40;;;;;;;13.33;60.10;98225.09;10394557;28;20527;-42
2023/10/29 15:14:10;;;;;;;5.13;3.90;;;;;;;13.19;60.37;98264.81;10396929;28;20311;-44
2023/10/29 15:19:12;;;;;;;5.30;3.37;;;;;;;13.52;59.95;98216.84;10395235;28;20243;-43
2023/10/29 15:24:30;;;;;;;5.97;3.90;;;;;;;13.79;58.70;98217.84;10402993;28;20239;-41
2023/10/29 15:29:32;;;;;;;5.67;4.13;;;;;;;14.21;58.14;98220.13;10394202;28;20229;-41
2023/10/29 15:34:34;;;;;;;5.97;3.47;;;;;;;11.96;64.29;98283.53;10391572;28;20233;-41
2023/10/29 15:39:37;;;;;;;4.90;3.97;;;;;;;12.06;64.19;98318.63;10391959;28;20228;-39
2023/10/29 15:44:39;;;;;;;7.20;4.10;;;;;;;11.44;65.48;98338.44;10395167;28;20616;-41
2023/10/29 15:49:41;;;;;;;4.00;2.97;;;;;;;10.41;69.16;98425.47;10397105;28;20233;-40
2023/10/29 15:54:43;;;;;;;3.20;2.23;;;;;;;11.60;67.35;98304.84;10402371;28;20327;-38
2023/10/29 15:59:45;;;;;;;6.00;1.93;;;;;;;11.25;66.42;98382.31;10403496;28;20740;-40
2023/10/29 16:04:46;;;;;;;1.40;1.40;;;;;;;12.72;63.75;98225.50;10407754;28;20232;-40
2023/10/29 16:09:49;;;;;;;2.10;1.90;;;;;;;11.69;64.77;98407.19;10399990;28;20243;-38
2023/10/29 16:14:51;;;;;;;5.10;1.60;;;;;;;11.91;64.42;98466.50;10407519;28;20725;-41
2023/10/29 16:19:53;;;;;;;2.23;1.70;;;;;;;12.07;63.25;98470.41;10402357;28;20690;-37
2023/10/29 16:24:55;;;;;;;2.00;1.90;;;;;;;11.28;66.66;98395.28;10410672;28;20315;-41
2023/10/29 16:29:57;;;;;;;1.97;1.87;;;;;;;12.51;62.81;98464.91;10402472;28;20233;-42
2023/10/29 16:34:58;;;;;;;2.00;1.90;;;;;;;12.09;62.60;98519.28;10410040;28;20239;-42
2023/10/29 16:40:00;;;;;;;2.03;1.50;;;;;;;13.17;59.66;98467.56;10402191;28;20322;-40
2023/10/29 16:45:03;;;;;;;2.10;2.00;;;;;;;13.36;58.75;98495.16;10407515;28;20263;-37
2023/10/29 16:50:05;;;;;;;4.93;2.40;;;;;;;14.29;56.81;98469.13;10402993;28;20326;-42
2023/10/29 16:55:07;;;;;;;2.37;2.17;;;;;;;14.42;55.99;98535.28;10409834;28;20728;-42
2023/10/29 17:00:10;;;;;;;2.23;2.03;;;;;;;14.40;56.18;98551.66;10401410;28;20223;-39
2023/10/29 17:05:11;;;;;;;2.10;1.90;;;;;;;14.32;56.28;98596.97;10407838;28;20323;-41
2023/10/29 17:10:14;;;;;;;1.93;1.83;;;;;;;12.73;60.66;98599.38;10403970;28;20209;-39
2023/10/29 17:15:16;;;;;;;1.80;1.53;;;;;;;13.15;59.79;98559.09;10408073;28;20220;-40
2023/10/29 17:20:18;;;;;;;2.70;2.50;;;;;;;12.55;61.41;98598.38;10403519;28;20220;-41
2023/10/29 17:25:20;;;;;;;2.67;2.13;;;;;;;13.02;60.03;98573.56;10408267;28;20375;-40
2023/10/29 17:30:22;;;;;;;8.00;5.13;;;;;;;12.13;61.87;98667.13;10405260;28;20212;-42
2023/10/29 17:35:29;;;;;;;9.77;8.20;;;;;;;12.14;62.69;98610.59;10416156;28;20221;-41
2023/10/29 17:40:31;;;;;;;4.40;4.00;;;;;;;13.33;59.92;98562.78;10398591;28;20310;-40
2023/10/29 17:45:37;;;;;;;5.23;3.90;;;;;;;12.70;61.16;98608.72;10399113;28;20243;-40
2023/10/29 17:50:41;;;;;;;8.37;5.90;;;;;;;11.30;63.70;98762.75;10394873;28;20886;-43
2023/10/29 17:55:42;;;;;;;3.93;3.63;;;;;;;13.04;61.20;98551.84;10398072;28;20653;-41
2023/10/29 18:00:45;;;;;;;2.30;2.10;;;;;;;12.27;61.66;98691.97;10391772;28;20232;-41
2023/10/29 18:05:47;;;;;;;2.40;2.20;;;;;;;12.86;60.35;98650.22;10401389;28;20251;-40
2023/10/29 18:10:49;;;;;;;3.17;2.40;;;;;;;12.98;60.28;98644.88;10397689;28;20370;-42
2023/10/29 18:15:51;;;;;;;3.97;3.43;;;;;;;12.54;60.94;98690.66;10402353;28;20235;-40
2023/10/29 18:20:53;;;;;;;6.67;4.93;;;;;;;13.40;59.00;98644.09;10393423;28;20240;-42
2023/10/29 18:25:57;;;;;;;7.13;3.47;;;;;;;13.39;58.81;98658.59;10400822;28;20312;-40
2023/10/29 18:31:09;;;;;;;6.67;4.00;;;;;;;12.22;60.47;98799.91;10396338;28;20910;-43
2023/10/29 18:36:11;;;;;;;7.87;4.20;;;;;;;12.40;61.22;98739.28;10403248;28;20322;-41
2023/10/29 18:41:13;;;;;;;4.50;3.43;;;;;;;13.12;59.78;98664.31;10396571;28;20236;-41
2023/10/29 18:46:16;;;;;;;6.20;4.40;;;;;;;13.50;58.87;98620.16;10398351;28;20286;-42
2023/10/29 18:51:23;;;;;;;3.83;2.63;;;;;;;12.23;61.50;98722.94;10393993;28;20355;-39
2023/10/29 18:56:25;;;;;;;2.70;2.50;;;;;;;11.84;62.56;98706.97;10396671;28;20287;-40
2023/10/29 19:01:27;;;;;;;2.77;2.50;;;;;;;12.82;60.48;98642.84;10397468;28;20666;-42
2023/10/29 19:06:29;;;;;;;3.10;2.80;;;;;;;12.69;60.90;98652.69;10400650;28;20267;-42
2023/10/29 19:11:33;;;;;;;9.87;7.63;;;;;;;12.96;60.06;98620.13;10399651;28;20323;-42
2023/10/29 19:16:34;;;;;;;2.27;1.90;;;;;;;12.82;60.44;98640.16;10400795;28;20224;-41
2023/10/29 19:21:36;;;;;;;2.60;2.40;;;;;;;11.74;63.35;98694.09;10394806;28;20602;-42
2023/10/29 19:26:38;;;;;;;4.43;3.47;;;;;;;11.89;63.90;98650.84;10405651;28;20247;-39
2023/10/29 19:31:40;;;;;;;3.87;3.00;;;;;;;11.43;64.90;98679.66;10404200;28;20236;-42
2023/10/29 19:36:42;;;;;;;2.80;2.60;;;;;;;11.70;63.19;98692.06;10409107;28;20229;-41
2023/10/29 19:41:44;;;;;;;7.27;5.37;;;;;;;11.68;63.89;98707.56;10401291;28;20251;-43
2023/10/29 19:46:49;;;;;;;4.30;3.37;;;;;;;12.17;62.94;98628.91;10410949;28;20322;-42
2023/10/29 19:51:50;;;;;;;7.47;5.40;;;;;;;12.08;63.06;98649.03;10402097;28;20263;-40
2023/10/29 19:56:52;;;;;;;2.67;2.47;;;;;;;10.99;65.60;98801.81;10410749;28;20283;-38
2023/10/29 20:01:54;;;;;;;2.60;2.40;;;;;;;12.40;62.51;98645.38;10406371;28;20276;-41
2023/10/29 20:06:56;;;;;;;2.10;2.00;;;;;;;13.26;60.86;98593.25;10409420;28;20232;-40
2023/10/29 20:11:58;;;;;;;2.00;1.90;;;;;;;11.94;63.42;98725.25;10404265;28;20265;-41
2023/10/29 20:17:00;;;;;;;2.10;1.90;;;;;;;11.74;64.69;98728.94;10409358;28;20290;-41
2023/10/29 20:22:02;;;;;;;2.40;2.20;;;;;;;13.08;61.00;98660.47;10399729;28;20307;-42
2023/10/29 20:27:04;;;;;;;2.13;2.00;;;;;;;13.26;61.22;98578.97;10407230;28;20285;-42
2023/10/29 20:32:06;;;;;;;2.33;2.00;;;;;;;11.76;63.63;98782.28;10400965;28;20319;-39
2023/10/29 20:37:08;;;;;;;2.40;2.20;;;;;;;10.88;67.33;98759.63;10411699;28;20236;-42
2023/10/29 20:42:10;;;;;;;1.97;1.87;;;;;;;12.67;63.60;98609.19;10398959;28;20240;-42
2023/10/29 20:47:11;;;;;;;2.77;2.40;;;;;;;11.77;64.72;98723.13;10403219;28;20240;-42
2023/10/29 20:52:16;;;;;;;2.50;2.40;;;;;;;12.88;61.67;98669.59;10399842;28;20236;-43
2023/10/29 20:57:18;;;;;;;2.50;2.30;;;;;;;12.72;62.48;98662.16;10403183;28;20321;-42
2023/10/29 21:02:19;;;;;;;1.97;1.87;;;;;;;11.68;65.24;98720.94;10400262;28;22378;-42
2023/10/29 21:07:21;;;;;;;2.40;2.20;;;;;;;12.04;64.76;98698.78;10397059;28;20293;-43
2023/10/29 21:12:23;;;;;;;2.47;2.27;;;;;;;13.33;60.77;98672.91;10400312;28;20237;-42
2023/10/29 21:17:25;;;;;;;2.23;2.03;;;;;;;12.26;62.36;98844.00;10397990;28;20506;-42
2023/10/29 21:22:27;;;;;;;2.20;2.10;;;;;;;12.50;63.57;98720.84;10397020;28;20241;-42
2023/10/29 21:27:29;;;;;;;2.50;2.30;;;;;;;12.38;63.15;98758.28;10399859;28;20294;-42
2023/10/29 21:32:31;;;;;;;2.23;2.10;;;;;;;12.18;63.82;98758.47;10400554;28;20456;-42
2023/10/29 21:37:33;;;;;;;2.10;2.00;;;;;;;12.32;63.13;98745.78;10400723;28;20236;-43
2023/10/29 21:42:34;;;;;;;2.37;2.27;;;;;;;11.79;65.13;98768.47;10400080;28;20295;-42
2023/10/29 21:47:38;;;;;;;2.30;2.10;;;;;;;12.64;63.22;98678.59;10394164;28;20240;-42
2023/10/29 21:52:41;;;;;;;1.97;1.70;;;;;;;12.08;65.12;98678.53;10415344;28;20236;-42
2023/10/29 21:57:43;;;;;;;2.87;1.90;;;;;;;12.44;63.74;98658.13;10393144;28;20817;-42
2023/10/29 22:02:44;;;;;;;3.67;2.10;;;;;;;12.26;63.59;98676.91;10398858;28;20294;-42
2023/10/29 22:07:46;;;;;;;4.37;1.97;;;;;;;12.86;62.70;98630.59;10396411;28;20254;-42
2023/10/29 22:12:49;;;;;;;1.90;1.80;;;;;;;11.86;65.43;98721.00;10401484;28;20610;-42
2023/10/29 22:17:51;;;;;;;2.03;1.77;;;;;;;11.54;64.57;98824.66;10396943;28;20256;-43
2023/10/29 22:22:52;;;;;;;1.93;1.83;;;;;;;12.19;64.28;98709.16;10397350;28;20233;-42
2023/10/29 22:27:54;;;;;;;2.27;2.00;;;;;;;12.24;63.02;98776.38;10395311;28;20335;-42
2023/10/29 22:32:56;;;;;;;1.90;1.70;;;;;;;12.45;63.18;98707.22;10395591;28;20667;-42
2023/10/29 22:37:58;;;;;;;1.87;1.77;;;;;;;11.73;64.46;98833.69;10393844;28;20236;-42
2023/10/29 22:42:59;;;;;;;2.33;2.10;;;;;;;12.16;64.48;98758.72;10396503;28;20722;-41
2023/10/29 22:48:01;;;;;;;1.77;1.67;;;;;;;12.74;63.32;98727.19;10393368;28;20237;-42
2023/10/29 22:53:03;;;;;;;2.47;1.90;;;;;;;12.72;62.07;98807.94;10399235;28;20239;-42
2023/10/29 22:58:05;;;;;;;1.70;1.60;;;;;;;13.55;60.01;98765.41;10393318;28;20227;-42
2023/10/29 23:03:07;;;;;;;1.70;1.60;;;;;;;14.16;59.12;98717.72;10393747;28;20244;-43
2023/10/29 23:08:09;;;;;;;1.77;1.67;;;;;;;12.80;62.11;98800.63;10393415;28;20706;-42
2023/10/29 23:13:11;;;;;;;1.70;1.60;;;;;;;14.25;58.33;98749.66;10397795;28;20322;-42
2023/10/29 23:18:13;;;;;;;1.93;1.83;;;;;;;12.89;61.48;98888.72;10397964;28;20263;-40
2023/10/29 23:23:18;;;;;;;2.07;1.57;;;;;;;12.82;61.55;98852.22;10399692;28;20748;-42
2023/10/29 23:28:20;;;;;;;1.87;1.77;;;;;;;14.70;57.37;98722.13;10393128;28;20247;-43